Time;durP1;ratioP1;P1;durP2;ratioP2;P2;SDS_P1;SDS_P2;PMS_P1;PMS_P2;Temp;Humidity;BMP_temperature;BMP_pressure;BME280_temperature;BME280_humidity;BME280_pressure;Samples;Min_cycle;Max_cycle;Signal;HPM_P1;HPM_P2
2022/05/21 00:00:47;;;;;;;11.88;10.20;;;;;;;;;;5048520;28;20433;-79
2022/05/21 00:03:13;;;;;;;13.82;10.25;;;;;;;;;;5053757;28;20437;-80
2022/05/21 00:05:40;;;;;;;12.00;10.80;;;;;;;;;;5055676;28;20470;-80
2022/05/21 00:08:08;;;;;;;12.43;10.55;;;;;;;;;;5056896;28;20425;-80
2022/05/21 00:10:36;;;;;;;11.48;10.00;;;;;;;;;;5056319;28;20445;-80
2022/05/21 00:13:03;;;;;;;11.18;10.07;;;;;;;;;;5056091;28;20518;-80
2022/05/21 00:15:30;;;;;;;12.35;10.30;;;;;;;;;;5056260;28;20457;-81
2022/05/21 00:17:56;;;;;;;11.38;9.68;;;;;;;;;;5057035;28;20837;-82
2022/05/21 00:23:11;;;;;;;10.13;9.20;;;;;;;;;;5050947;28;20455;-81
2022/05/21 00:25:38;;;;;;;10.60;8.82;;;;;;;;;;5065363;23;20421;-79
2022/05/21 00:28:05;;;;;;;9.70;8.00;;;;;;;;;;5052563;28;20433;-83
2022/05/21 00:30:32;;;;;;;8.20;7.05;;;;;;;;;;5059093;28;20432;-80
2022/05/21 00:32:58;;;;;;;9.68;6.85;;;;;;;;;;5054572;28;20498;-80
2022/05/21 00:35:24;;;;;;;8.30;6.47;;;;;;;;;;5060228;28;20534;-81
2022/05/21 00:37:50;;;;;;;8.90;6.68;;;;;;;;;;5052432;28;20424;-82
2022/05/21 00:40:17;;;;;;;7.63;6.03;;;;;;;;;;5056280;28;20451;-82
2022/05/21 00:42:45;;;;;;;7.43;6.03;;;;;;;;;;5056978;28;20425;-82
2022/05/21 00:45:12;;;;;;;6.35;5.75;;;;;;;;;;5061814;28;20452;-80
2022/05/21 00:47:38;;;;;;;8.63;6.40;;;;;;;;;;5059422;28;20487;-82
2022/05/21 00:50:05;;;;;;;8.30;5.50;;;;;;;;;;5058686;28;20437;-81
2022/05/21 00:52:33;;;;;;;8.73;5.90;;;;;;;;;;5052616;28;20433;-82
2022/05/21 00:55:00;;;;;;;6.50;5.90;;;;;;;;;;5059287;28;20485;-81
2022/05/21 00:57:28;;;;;;;8.38;6.30;;;;;;;;;;5061757;28;20483;-80
2022/05/21 00:59:57;;;;;;;6.70;6.00;;;;;;;;;;5060664;28;20423;-81
2022/05/21 01:02:25;;;;;;;6.95;5.82;;;;;;;;;;5058916;28;20440;-81
2022/05/21 01:04:51;;;;;;;6.70;6.10;;;;;;;;;;5061491;28;20428;-82
2022/05/21 01:07:18;;;;;;;8.77;6.20;;;;;;;;;;5057476;28;20802;-80
2022/05/21 01:09:50;;;;;;;10.10;6.30;;;;;;;;;;5060083;28;20433;-79
2022/05/21 01:12:16;;;;;;;7.88;6.50;;;;;;;;;;5058377;28;20421;-80
2022/05/21 01:14:48;;;;;;;7.93;7.13;;;;;;;;;;5062850;28;20409;-80
2022/05/21 01:17:16;;;;;;;9.27;6.88;;;;;;;;;;5058945;28;20433;-83
2022/05/21 01:19:57;;;;;;;14.88;7.18;;;;;;;;;;5059918;28;20429;-79
2022/05/21 01:22:25;;;;;;;7.63;6.88;;;;;;;;;;5052655;28;21109;-79
2022/05/21 01:24:52;;;;;;;8.48;7.40;;;;;;;;;;5057112;28;20427;-80
2022/05/21 01:27:19;;;;;;;8.50;6.90;;;;;;;;;;5052433;28;20429;-78
2022/05/21 01:29:47;;;;;;;11.38;7.97;;;;;;;;;;5052615;28;20809;-80
2022/05/21 01:32:15;;;;;;;10.83;8.03;;;;;;;;;;5054889;28;20483;-81
2022/05/21 01:34:41;;;;;;;9.55;8.18;;;;;;;;;;5056999;28;20853;-81
2022/05/21 01:37:07;;;;;;;11.00;8.30;;;;;;;;;;5050169;28;20468;-80
2022/05/21 01:39:35;;;;;;;8.85;7.70;;;;;;;;;;5055564;28;20432;-78
2022/05/21 01:42:01;;;;;;;13.57;8.80;;;;;;;;;;5053678;28;20424;-80
2022/05/21 01:44:39;;;;;;;11.43;8.80;;;;;;;;;;5055089;28;20468;-79
2022/05/21 01:47:07;;;;;;;9.00;8.10;;;;;;;;;;5051224;28;20447;-79
2022/05/21 01:49:33;;;;;;;11.02;8.70;;;;;;;;;;5055757;28;20913;-79
2022/05/21 01:52:00;;;;;;;10.70;8.82;;;;;;;;;;5051088;28;20437;-78
2022/05/21 01:54:26;;;;;;;12.45;9.07;;;;;;;;;;5057761;28;20431;-80
2022/05/21 01:56:54;;;;;;;11.35;9.30;;;;;;;;;;5052286;28;20429;-80
2022/05/21 01:59:20;;;;;;;12.63;8.90;;;;;;;;;;5057306;28;20423;-80
2022/05/21 02:01:48;;;;;;;12.85;9.25;;;;;;;;;;5056222;28;20519;-79
2022/05/21 02:04:14;;;;;;;13.00;9.70;;;;;;;;;;5054920;28;20449;-77
2022/05/21 02:06:40;;;;;;;12.63;9.80;;;;;;;;;;5055344;28;20818;-79
2022/05/21 02:09:07;;;;;;;14.77;10.13;;;;;;;;;;5056064;28;20428;-80
2022/05/21 02:11:33;;;;;;;14.90;10.35;;;;;;;;;;5056824;28;20421;-80
2022/05/21 02:14:00;;;;;;;16.95;11.18;;;;;;;;;;5057096;28;20488;-80
2022/05/21 02:16:28;;;;;;;12.68;11.20;;;;;;;;;;5054913;28;20439;-80
2022/05/21 02:18:54;;;;;;;15.05;9.95;;;;;;;;;;5056613;28;20424;-79
2022/05/21 02:21:20;;;;;;;14.35;10.65;;;;;;;;;;5058299;28;21114;-81
2022/05/21 02:23:47;;;;;;;14.45;10.20;;;;;;;;;;5049517;28;20513;-81
2022/05/21 02:26:15;;;;;;;14.07;10.82;;;;;;;;;;5053972;28;20410;-80
2022/05/21 02:28:41;;;;;;;16.58;11.50;;;;;;;;;;5056597;28;20429;-80
2022/05/21 02:31:08;;;;;;;15.80;12.20;;;;;;;;;;5052715;28;20528;-80
2022/05/21 02:33:35;;;;;;;12.98;11.10;;;;;;;;;;5056503;28;20480;-80
2022/05/21 02:36:01;;;;;;;14.18;11.25;;;;;;;;;;5051085;28;20427;-80
2022/05/21 02:41:11;;;;;;;14.13;11.32;;;;;;;;;;5053443;28;20410;-79
2022/05/21 02:43:38;;;;;;;20.85;13.38;;;;;;;;;;5055839;28;20433;-79
2022/05/21 02:46:04;;;;;;;18.57;13.10;;;;;;;;;;5050897;28;20451;-79
2022/05/21 02:48:32;;;;;;;21.25;14.30;;;;;;;;;;5053350;28;20941;-80
2022/05/21 02:50:58;;;;;;;17.90;13.37;;;;;;;;;;5054354;28;20436;-81
2022/05/21 02:53:24;;;;;;;17.83;14.48;;;;;;;;;;5051545;28;20483;-80
2022/05/21 02:55:51;;;;;;;19.67;13.80;;;;;;;;;;5053010;28;20774;-83
2022/05/21 02:58:18;;;;;;;19.02;14.48;;;;;;;;;;5056470;28;20427;-79
2022/05/21 03:00:44;;;;;;;19.40;14.98;;;;;;;;;;5052444;28;21334;-80
2022/05/21 03:03:11;;;;;;;21.13;15.80;;;;;;;;;;5053020;28;20427;-79
2022/05/21 03:05:38;;;;;;;19.20;16.05;;;;;;;;;;5054085;28;20429;-80
2022/05/21 03:10:20;;;;;;;18.17;15.48;;;;;;;;;;5054255;28;20912;-80
2022/05/21 03:10:51;;;;;;;19.83;16.00;;;;;;;;;;5054463;28;20423;-79
2022/05/21 03:13:18;;;;;;;21.67;16.33;;;;;;;;;;5057223;28;20480;-80
2022/05/21 03:15:44;;;;;;;21.25;17.33;;;;;;;;;;5056425;28;20488;-78
2022/05/21 03:18:11;;;;;;;21.40;17.40;;;;;;;;;;5053722;28;20884;-79
2022/05/21 03:20:39;;;;;;;24.97;19.07;;;;;;;;;;5058129;28;20894;-81
2022/05/21 03:23:06;;;;;;;26.60;19.05;;;;;;;;;;5053836;28;20923;-81
2022/05/21 03:25:32;;;;;;;23.50;20.52;;;;;;;;;;5049399;28;20460;-81
2022/05/21 03:27:59;;;;;;;28.30;22.15;;;;;;;;;;5052202;28;20484;-79
2022/05/21 03:30:27;;;;;;;32.07;22.10;;;;;;;;;;5053171;28;20471;-80
2022/05/21 03:32:53;;;;;;;27.60;22.20;;;;;;;;;;5052090;28;20800;-81
2022/05/21 03:35:20;;;;;;;29.48;22.60;;;;;;;;;;5051855;28;20502;-79
2022/05/21 03:37:48;;;;;;;35.33;25.05;;;;;;;;;;5055398;28;20423;-79
2022/05/21 03:40:16;;;;;;;35.63;26.83;;;;;;;;;;5054871;28;20434;-80
2022/05/21 03:42:42;;;;;;;32.72;26.60;;;;;;;;;;5057686;28;20783;-80
2022/05/21 03:45:10;;;;;;;39.10;28.57;;;;;;;;;;5058802;28;20498;-80
2022/05/21 03:47:38;;;;;;;36.92;26.70;;;;;;;;;;5056891;28;20431;-81
2022/05/21 03:50:05;;;;;;;39.83;27.90;;;;;;;;;;5057596;28;20508;-79
2022/05/21 03:52:31;;;;;;;42.45;29.58;;;;;;;;;;5054052;28;20494;-81
2022/05/21 03:54:59;;;;;;;48.42;31.65;;;;;;;;;;5056495;28;20434;-78
2022/05/21 03:57:25;;;;;;;41.83;30.30;;;;;;;;;;5056720;28;20423;-79
2022/05/21 03:59:51;;;;;;;43.50;32.03;;;;;;;;;;5058289;28;20431;-80
2022/05/21 04:02:18;;;;;;;39.10;31.70;;;;;;;;;;5055416;28;20432;-79
2022/05/21 04:04:44;;;;;;;42.60;29.57;;;;;;;;;;5060614;28;20523;-79
2022/05/21 04:07:10;;;;;;;39.92;31.15;;;;;;;;;;5057963;28;20926;-83
2022/05/21 04:09:37;;;;;;;38.70;29.90;;;;;;;;;;5054949;28;20862;-81
2022/05/21 04:12:05;;;;;;;38.83;30.17;;;;;;;;;;5057594;28;20425;-80
2022/05/21 04:14:31;;;;;;;37.97;30.08;;;;;;;;;;5058487;28;20514;-81
2022/05/21 04:16:58;;;;;;;42.45;31.52;;;;;;;;;;5056793;28;20475;-79
2022/05/21 04:19:25;;;;;;;43.38;32.15;;;;;;;;;;5060447;28;20415;-83
2022/05/21 04:21:51;;;;;;;40.35;32.10;;;;;;;;;;5059310;28;20473;-81
2022/05/21 04:24:17;;;;;;;42.40;31.50;;;;;;;;;;5057475;28;20425;-81
2022/05/21 04:26:44;;;;;;;41.08;32.38;;;;;;;;;;5058744;28;20477;-79
2022/05/21 04:29:12;;;;;;;48.03;33.90;;;;;;;;;;5059486;28;20437;-79
2022/05/21 04:31:38;;;;;;;41.00;33.63;;;;;;;;;;5057503;28;20473;-80
2022/05/21 04:34:05;;;;;;;50.70;36.90;;;;;;;;;;5055623;28;20429;-80
2022/05/21 04:36:31;;;;;;;48.57;37.77;;;;;;;;;;5055474;28;20537;-81
2022/05/21 04:38:58;;;;;;;49.00;37.60;;;;;;;;;;5054330;28;20431;-80
2022/05/21 04:41:25;;;;;;;46.60;37.17;;;;;;;;;;5054876;28;20424;-78
2022/05/21 04:43:51;;;;;;;50.72;38.95;;;;;;;;;;5055819;28;20427;-81
2022/05/21 04:46:19;;;;;;;52.17;38.20;;;;;;;;;;5056785;28;20404;-81
2022/05/21 04:48:45;;;;;;;59.45;41.55;;;;;;;;;;5055312;28;20437;-81
2022/05/21 04:51:12;;;;;;;51.63;39.13;;;;;;;;;;5058139;28;20792;-80
2022/05/21 04:53:38;;;;;;;55.75;40.38;;;;;;;;;;5055013;28;20437;-80
2022/05/21 04:56:05;;;;;;;54.60;40.50;;;;;;;;;;5059194;28;20469;-80
2022/05/21 04:58:31;;;;;;;54.42;39.83;;;;;;;;;;5058129;28;20833;-81
2022/05/21 05:00:57;;;;;;;56.63;40.33;;;;;;;;;;5053481;28;20481;-81
2022/05/21 05:03:25;;;;;;;50.85;39.83;;;;;;;;;;5057972;28;20497;-80
2022/05/21 05:05:52;;;;;;;53.47;40.28;;;;;;;;;;5058424;28;20481;-81
2022/05/21 05:08:19;;;;;;;52.30;39.20;;;;;;;;;;5056505;28;20532;-82
2022/05/21 05:10:45;;;;;;;55.30;39.67;;;;;;;;;;5058770;28;20485;-79
2022/05/21 05:13:12;;;;;;;51.40;37.97;;;;;;;;;;5059180;28;20423;-81
2022/05/21 05:15:38;;;;;;;52.67;39.33;;;;;;;;;;5060526;28;20408;-79
2022/05/21 05:18:06;;;;;;;57.70;39.08;;;;;;;;;;5050808;28;20437;-80
2022/05/21 05:20:34;;;;;;;51.67;39.90;;;;;;;;;;5055709;28;20438;-79
2022/05/21 05:23:00;;;;;;;52.40;38.83;;;;;;;;;;5054960;28;20432;-81
2022/05/21 05:25:26;;;;;;;52.42;38.80;;;;;;;;;;5051877;28;20482;-80
2022/05/21 05:27:53;;;;;;;49.63;38.50;;;;;;;;;;5055187;28;20481;-79
2022/05/21 05:30:20;;;;;;;54.25;39.05;;;;;;;;;;5058088;28;20433;-80
2022/05/21 05:32:46;;;;;;;50.88;39.63;;;;;;;;;;5057010;28;20925;-79
2022/05/21 05:35:12;;;;;;;49.20;38.38;;;;;;;;;;5055386;28;20420;-78
2022/05/21 05:37:40;;;;;;;49.88;37.78;;;;;;;;;;5052806;28;20488;-81
2022/05/21 05:40:07;;;;;;;48.60;37.42;;;;;;;;;;5050352;28;20855;-81
2022/05/21 05:42:35;;;;;;;48.90;36.90;;;;;;;;;;5049538;28;20430;-80
2022/05/21 05:45:01;;;;;;;47.90;35.67;;;;;;;;;;5061393;28;20920;-83
2022/05/21 05:47:28;;;;;;;43.20;33.67;;;;;;;;;;5055690;28;20479;-80
2022/05/21 05:49:54;;;;;;;40.42;32.33;;;;;;;;;;5060233;28;20455;-81
2022/05/21 05:52:21;;;;;;;39.83;32.05;;;;;;;;;;5051407;28;20421;-79
2022/05/21 05:54:48;;;;;;;45.03;32.67;;;;;;;;;;5059725;28;20858;-80
2022/05/21 05:57:15;;;;;;;41.10;32.65;;;;;;;;;;5057743;28;20423;-81
2022/05/21 05:59:49;;;;;;;38.60;29.85;;;;;;;;;;5055835;28;20926;-79
2022/05/21 06:04:59;;;;;;;36.70;27.75;;;;;;;;;;5059234;28;20498;-80
2022/05/21 06:07:26;;;;;;;38.50;28.00;;;;;;;;;;5055484;28;20427;-79
2022/05/21 06:09:54;;;;;;;34.00;27.35;;;;;;;;;;5054616;28;20807;-79
2022/05/21 06:12:20;;;;;;;33.25;26.00;;;;;;;;;;5056767;28;20504;-79
2022/05/21 06:14:46;;;;;;;32.50;25.33;;;;;;;;;;5052739;28;21007;-81
2022/05/21 06:17:13;;;;;;;30.53;23.73;;;;;;;;;;5060871;28;20420;-80
2022/05/21 06:19:39;;;;;;;27.13;21.20;;;;;;;;;;5054652;28;20473;-81
2022/05/21 06:22:05;;;;;;;31.10;22.07;;;;;;;;;;5058300;28;20425;-83
2022/05/21 06:24:34;;;;;;;25.30;20.55;;;;;;;;;;5058943;28;20423;-80
2022/05/21 06:27:01;;;;;;;28.92;20.90;;;;;;;;;;5086733;23;20433;-80
2022/05/21 06:29:28;;;;;;;29.70;21.58;;;;;;;;;;5039885;28;20950;-80
2022/05/21 06:31:54;;;;;;;34.65;21.25;;;;;;;;;;5042130;28;20448;-81
2022/05/21 06:34:20;;;;;;;30.60;20.90;;;;;;;;;;5050147;28;20471;-80
2022/05/21 06:36:46;;;;;;;26.23;19.98;;;;;;;;;;5046338;28;20427;-81
2022/05/21 06:39:13;;;;;;;30.88;20.85;;;;;;;;;;5046496;28;20495;-81
2022/05/21 06:41:39;;;;;;;27.38;18.67;;;;;;;;;;5044071;28;20477;-81
2022/05/21 06:44:07;;;;;;;24.87;17.17;;;;;;;;;;5046737;28;20429;-80
2022/05/21 06:46:33;;;;;;;25.33;17.15;;;;;;;;;;5040760;28;20415;-80
2022/05/21 06:49:00;;;;;;;18.77;15.27;;;;;;;;;;5046389;28;20409;-81
2022/05/21 06:51:26;;;;;;;25.13;14.68;;;;;;;;;;5045483;28;20880;-82
2022/05/21 06:53:52;;;;;;;20.88;13.55;;;;;;;;;;5048581;28;20413;-81
2022/05/21 06:56:19;;;;;;;18.88;12.57;;;;;;;;;;5046036;28;20413;-80
2022/05/21 06:58:45;;;;;;;20.17;12.38;;;;;;;;;;5047437;28;20438;-81
2022/05/21 07:01:13;;;;;;;17.00;10.70;;;;;;;;;;5047268;28;20413;-81
2022/05/21 07:03:40;;;;;;;18.42;10.30;;;;;;;;;;5045831;28;20433;-81
2022/05/21 07:08:50;;;;;;;14.20;9.20;;;;;;;;;;5044765;28;21165;-80
2022/05/21 07:11:17;;;;;;;13.63;8.30;;;;;;;;;;5044520;28;20419;-81
2022/05/21 07:13:44;;;;;;;15.35;8.43;;;;;;;;;;5044919;28;20453;-79
2022/05/21 07:16:10;;;;;;;16.42;8.80;;;;;;;;;;5043269;28;20984;-80
2022/05/21 07:18:38;;;;;;;11.73;6.75;;;;;;;;;;5046106;28;20487;-80
2022/05/21 07:21:04;;;;;;;13.57;7.38;;;;;;;;;;5046246;28;20463;-83
2022/05/21 07:23:31;;;;;;;15.20;7.60;;;;;;;;;;5046307;28;20504;-81
2022/05/21 07:25:57;;;;;;;11.33;6.60;;;;;;;;;;5045460;28;20429;-80
2022/05/21 07:28:24;;;;;;;15.45;6.80;;;;;;;;;;5044571;28;20442;-81
2022/05/21 07:30:51;;;;;;;12.93;6.07;;;;;;;;;;5044483;28;20847;-81
2022/05/21 07:33:19;;;;;;;15.40;6.50;;;;;;;;;;5047026;28;20932;-80
2022/05/21 07:35:46;;;;;;;10.07;5.97;;;;;;;;;;5047399;28;20428;-80
2022/05/21 07:38:13;;;;;;;7.38;4.95;;;;;;;;;;5046149;28;20416;-82
2022/05/21 07:40:40;;;;;;;11.80;5.50;;;;;;;;;;5045318;28;20427;-81
2022/05/21 07:43:10;;;;;;;11.85;4.70;;;;;;;;;;5046419;28;20425;-81
2022/05/21 07:45:39;;;;;;;11.88;4.38;;;;;;;;;;5043258;28;20431;-81
2022/05/21 07:48:05;;;;;;;10.65;4.70;;;;;;;;;;5044114;28;20434;-80
2022/05/21 07:50:31;;;;;;;13.07;4.90;;;;;;;;;;5046355;28;20427;-81
2022/05/21 07:52:59;;;;;;;9.98;4.25;;;;;;;;;;5045034;28;20426;-82
2022/05/21 07:55:25;;;;;;;12.38;4.43;;;;;;;;;;5046518;28;21022;-82
2022/05/21 07:57:52;;;;;;;8.85;3.80;;;;;;;;;;5040683;28;20429;-82
2022/05/21 08:00:18;;;;;;;8.38;3.42;;;;;;;;;;5045720;28;20419;-81
2022/05/21 08:02:45;;;;;;;11.82;4.72;;;;;;;;;;5044406;28;20415;-81
2022/05/21 08:05:12;;;;;;;8.32;4.00;;;;;;;;;;5048904;28;20492;-80
2022/05/21 08:07:38;;;;;;;11.48;4.30;;;;;;;;;;5047597;28;20423;-81
2022/05/21 08:10:07;;;;;;;9.48;3.20;;;;;;;;;;5045808;28;20441;-80
2022/05/21 08:12:33;;;;;;;9.27;4.00;;;;;;;;;;5045535;28;20410;-80
2022/05/21 08:15:00;;;;;;;9.68;3.60;;;;;;;;;;5045721;28;20436;-80
2022/05/21 08:17:26;;;;;;;9.95;3.90;;;;;;;;;;5045438;28;20429;-81
2022/05/21 08:19:52;;;;;;;10.80;3.60;;;;;;;;;;5048265;28;20421;-80
2022/05/21 08:27:47;;;;;;;11.40;3.63;;;;;;;;;;5045786;28;20428;-82
2022/05/21 08:30:14;;;;;;;7.90;3.70;;;;;;;;;;5045477;28;20444;-78
2022/05/21 08:32:40;;;;;;;7.28;3.10;;;;;;;;;;5047219;28;20451;-81
2022/05/21 08:35:07;;;;;;;9.13;3.20;;;;;;;;;;5047406;28;20433;-81
2022/05/21 08:37:35;;;;;;;9.13;3.30;;;;;;;;;;5051813;28;20431;-80
2022/05/21 08:40:01;;;;;;;8.97;3.03;;;;;;;;;;5050408;28;20934;-81
2022/05/21 08:42:31;;;;;;;9.38;3.50;;;;;;;;;;5050675;28;20424;-80
2022/05/21 08:45:04;;;;;;;7.50;3.22;;;;;;;;;;5051244;28;20476;-81
2022/05/21 08:47:34;;;;;;;13.50;3.88;;;;;;;;;;5048945;28;20450;-81
2022/05/21 08:50:03;;;;;;;14.27;3.30;;;;;;;;;;5049801;28;20959;-82
2022/05/21 08:52:33;;;;;;;6.25;2.95;;;;;;;;;;5050990;28;20421;-81
2022/05/21 08:55:00;;;;;;;9.40;3.10;;;;;;;;;;5051557;28;20513;-82
2022/05/21 08:57:28;;;;;;;7.35;2.97;;;;;;;;;;5049992;28;20477;-80
2022/05/21 08:59:57;;;;;;;5.50;2.30;;;;;;;;;;5049689;28;20501;-79
2022/05/21 09:02:28;;;;;;;8.57;3.20;;;;;;;;;;5050019;28;20456;-82
2022/05/21 09:04:54;;;;;;;6.97;2.60;;;;;;;;;;5051049;28;20434;-80
2022/05/21 09:07:22;;;;;;;4.75;2.90;;;;;;;;;;5048790;28;20448;-81
2022/05/21 09:09:53;;;;;;;8.02;3.08;;;;;;;;;;5049955;28;20410;-81
2022/05/21 09:12:21;;;;;;;7.75;3.40;;;;;;;;;;5051023;28;21410;-80
2022/05/21 09:14:50;;;;;;;7.10;3.00;;;;;;;;;;5051361;28;20425;-80
2022/05/21 09:17:17;;;;;;;8.07;2.90;;;;;;;;;;5050946;28;20483;-79
2022/05/21 09:19:47;;;;;;;10.23;3.42;;;;;;;;;;5050411;28;20454;-81
2022/05/21 09:22:15;;;;;;;12.93;3.70;;;;;;;;;;5049462;28;20417;-79
2022/05/21 09:24:43;;;;;;;8.05;3.60;;;;;;;;;;5051359;28;20433;-81
2022/05/21 09:27:23;;;;;;;9.18;3.55;;;;;;;;;;5047691;28;20419;-81
2022/05/21 09:29:51;;;;;;;7.20;3.13;;;;;;;;;;5050194;28;20435;-81
2022/05/21 09:32:19;;;;;;;7.78;3.30;;;;;;;;;;5049670;28;20507;-81
2022/05/21 09:34:59;;;;;;;6.78;3.33;;;;;;;;;;5049820;28;20465;-81
2022/05/21 09:37:28;;;;;;;12.55;3.60;;;;;;;;;;5049485;28;20413;-80
2022/05/21 09:39:54;;;;;;;10.40;2.97;;;;;;;;;;5050626;28;20455;-82
2022/05/21 09:45:24;;;;;;;5.63;2.53;;;;;;;;;;5052286;28;20569;-81
2022/05/21 09:47:51;;;;;;;6.03;2.70;;;;;;;;;;5048249;28;20417;-80
2022/05/21 09:50:22;;;;;;;7.80;2.50;;;;;;;;;;5048638;28;20407;-79
2022/05/21 09:52:49;;;;;;;6.78;2.83;;;;;;;;;;5050334;28;20444;-81
2022/05/21 09:55:21;;;;;;;6.80;2.90;;;;;;;;;;5048992;28;20434;-79
2022/05/21 09:57:47;;;;;;;8.18;2.70;;;;;;;;;;5050128;28;20425;-81
2022/05/21 10:00:17;;;;;;;8.13;2.90;;;;;;;;;;5050165;28;20405;-80
2022/05/21 10:02:44;;;;;;;8.23;3.10;;;;;;;;;;5049064;28;20415;-79
2022/05/21 10:05:13;;;;;;;5.70;2.47;;;;;;;;;;5049513;28;20463;-82
2022/05/21 10:13:13;;;;;;;8.13;3.03;;;;;;;;;;5049842;28;20909;-82
2022/05/21 10:15:43;;;;;;;8.95;2.83;;;;;;;;;;5048793;28;20433;-81
2022/05/21 10:18:14;;;;;;;7.90;2.90;;;;;;;;;;5048168;28;20908;-81
2022/05/21 10:20:42;;;;;;;5.97;2.50;;;;;;;;;;5047426;28;20431;-79
2022/05/21 10:23:15;;;;;;;7.53;2.75;;;;;;;;;;5049209;28;20432;-80
2022/05/21 10:25:47;;;;;;;8.23;2.38;;;;;;;;;;5049680;28;20461;-81
2022/05/21 10:28:20;;;;;;;7.88;2.08;;;;;;;;;;5045502;28;20435;-81
2022/05/21 10:30:58;;;;;;;6.20;2.97;;;;;;;;;;5047295;28;20417;-85
2022/05/21 10:33:41;;;;;;;6.70;2.10;;;;;;;;;;5047382;28;20455;-82
2022/05/21 10:36:17;;;;;;;5.55;2.30;;;;;;;;;;5045753;28;20488;-85
2022/05/21 10:38:52;;;;;;;7.22;2.20;;;;;;;;;;5048638;28;21667;-81
2022/05/21 10:41:25;;;;;;;7.03;2.30;;;;;;;;;;5046942;28;20413;-82
2022/05/21 10:44:02;;;;;;;8.23;2.20;;;;;;;;;;5048399;28;20986;-82
2022/05/21 10:46:35;;;;;;;8.65;2.55;;;;;;;;;;5046518;28;20442;-82
2022/05/21 10:49:18;;;;;;;6.10;1.85;;;;;;;;;;5046437;28;20540;-84
2022/05/21 10:51:48;;;;;;;6.43;2.78;;;;;;;;;;5044497;28;20433;-80
2022/05/21 10:54:27;;;;;;;5.03;1.92;;;;;;;;;;5040375;28;20489;-84
2022/05/21 10:56:59;;;;;;;6.03;2.22;;;;;;;;;;5047768;28;20422;-81
2022/05/21 10:59:39;;;;;;;5.72;1.80;;;;;;;;;;5045336;28;20435;-81
2022/05/21 11:02:15;;;;;;;5.32;1.83;;;;;;;;;;5041179;28;20429;-81
2022/05/21 11:04:49;;;;;;;5.57;2.10;;;;;;;;;;5048517;28;22592;-80
2022/05/21 11:07:33;;;;;;;5.78;2.00;;;;;;;;;;5045243;28;20440;-81
2022/05/21 11:10:07;;;;;;;6.00;1.90;;;;;;;;;;5048559;28;20443;-83
2022/05/21 11:12:36;;;;;;;8.15;2.10;;;;;;;;;;5048195;28;20842;-82
2022/05/21 11:15:05;;;;;;;6.00;2.20;;;;;;;;;;5045980;28;20433;-81
2022/05/21 11:17:36;;;;;;;8.75;1.95;;;;;;;;;;5045706;28;20425;-83
2022/05/21 11:20:04;;;;;;;6.55;2.58;;;;;;;;;;5049374;28;20461;-82
2022/05/21 11:22:34;;;;;;;5.38;1.90;;;;;;;;;;5050670;28;20418;-81
2022/05/21 11:25:09;;;;;;;4.75;2.40;;;;;;;;;;5047947;28;20454;-82
2022/05/21 11:27:37;;;;;;;5.80;2.30;;;;;;;;;;5045893;28;20442;-83
2022/05/21 11:30:05;;;;;;;6.75;2.10;;;;;;;;;;5048670;28;22076;-82
2022/05/21 11:38:04;;;;;;;5.57;2.08;;;;;;;;;;5047449;28;20671;-79
2022/05/21 11:40:49;;;;;;;8.90;2.60;;;;;;;;;;5048376;28;20434;-82
2022/05/21 11:43:17;;;;;;;5.60;2.50;;;;;;;;;;5045796;28;20429;-81
2022/05/21 11:45:58;;;;;;;5.85;2.33;;;;;;;;;;5050287;28;20438;-84
2022/05/21 11:48:28;;;;;;;8.00;2.63;;;;;;;;;;5048095;28;20429;-82
2022/05/21 11:51:10;;;;;;;6.65;2.20;;;;;;;;;;5050040;28;20437;-82
2022/05/21 11:53:38;;;;;;;5.37;2.17;;;;;;;;;;5048602;28;20444;-82
2022/05/21 11:56:08;;;;;;;7.65;2.75;;;;;;;;;;5049059;28;20978;-81
2022/05/21 11:58:53;;;;;;;8.30;2.08;;;;;;;;;;5046094;28;20428;-81
2022/05/21 12:01:37;;;;;;;6.07;2.00;;;;;;;;;;5048434;28;20432;-84
2022/05/21 12:04:06;;;;;;;6.43;2.45;;;;;;;;;;5052554;28;20879;-81
2022/05/21 12:06:38;;;;;;;7.18;2.33;;;;;;;;;;5054185;28;20439;-80
2022/05/21 12:09:09;;;;;;;6.97;2.50;;;;;;;;;;5051334;28;20419;-83
2022/05/21 12:11:43;;;;;;;5.55;1.90;;;;;;;;;;5052494;28;20492;-81
2022/05/21 12:14:20;;;;;;;8.45;2.47;;;;;;;;;;5051549;28;20423;-82
2022/05/21 12:16:48;;;;;;;4.60;2.00;;;;;;;;;;5050799;28;20779;-81
2022/05/21 12:19:29;;;;;;;6.10;2.00;;;;;;;;;;5051484;28;20425;-81
2022/05/21 12:22:01;;;;;;;6.72;2.10;;;;;;;;;;5048354;28;20436;-85
2022/05/21 12:24:35;;;;;;;5.90;1.90;;;;;;;;;;5050702;28;20508;-79
2022/05/21 12:29:45;;;;;;;6.90;2.47;;;;;;;;;;5046564;28;20445;-82
2022/05/21 12:32:14;;;;;;;5.78;1.83;;;;;;;;;;5050567;28;20821;-82
2022/05/21 12:34:59;;;;;;;5.45;1.90;;;;;;;;;;5053040;28;20437;-82
2022/05/21 12:37:30;;;;;;;5.90;1.83;;;;;;;;;;5043507;28;20417;-80
2022/05/21 12:40:02;;;;;;;4.33;1.80;;;;;;;;;;5025030;28;20424;-82
2022/05/21 12:42:31;;;;;;;7.75;2.15;;;;;;;;;;5026903;28;20432;-83
2022/05/21 12:44:57;;;;;;;5.40;2.10;;;;;;;;;;5023326;28;20440;-83
2022/05/21 12:47:28;;;;;;;5.38;2.00;;;;;;;;;;5021338;28;20424;-81
2022/05/21 12:49:54;;;;;;;6.55;1.60;;;;;;;;;;5024057;28;20436;-83
2022/05/21 12:52:25;;;;;;;8.02;2.30;;;;;;;;;;5024940;28;20423;-82
2022/05/21 12:55:12;;;;;;;6.78;1.80;;;;;;;;;;5025575;28;20427;-80
2022/05/21 12:57:38;;;;;;;4.33;1.90;;;;;;;;;;5027428;28;20414;-80
2022/05/21 13:00:05;;;;;;;5.75;1.80;;;;;;;;;;5025918;28;20431;-82
2022/05/21 13:02:39;;;;;;;4.75;1.75;;;;;;;;;;5023617;28;20461;-81
2022/05/21 13:05:07;;;;;;;8.20;1.95;;;;;;;;;;5026234;28;20445;-82
2022/05/21 13:07:37;;;;;;;4.65;1.80;;;;;;;;;;5026876;28;20419;-82
2022/05/21 13:10:07;;;;;;;4.37;1.70;;;;;;;;;;5024720;28;20435;-82
2022/05/21 13:12:36;;;;;;;8.77;2.28;;;;;;;;;;5023766;28;20934;-82
2022/05/21 13:15:03;;;;;;;5.13;1.80;;;;;;;;;;5026308;28;20501;-83
2022/05/21 13:17:34;;;;;;;4.32;1.90;;;;;;;;;;5024366;28;20417;-81
2022/05/21 13:20:10;;;;;;;4.82;1.75;;;;;;;;;;5023841;28;20836;-81
2022/05/21 13:22:49;;;;;;;6.03;2.17;;;;;;;;;;5026058;28;20434;-83
2022/05/21 13:25:16;;;;;;;4.97;2.20;;;;;;;;;;5026525;28;20433;-82
2022/05/21 13:27:44;;;;;;;6.22;2.05;;;;;;;;;;5026893;28;20427;-83
2022/05/21 13:30:12;;;;;;;6.15;2.20;;;;;;;;;;5025414;28;20489;-82
2022/05/21 13:32:38;;;;;;;3.40;1.60;;;;;;;;;;5025232;28;20928;-81
2022/05/21 13:35:18;;;;;;;6.75;2.28;;;;;;;;;;5025028;28;20505;-80
2022/05/21 13:37:45;;;;;;;7.47;2.17;;;;;;;;;;5025155;28;20469;-79
2022/05/21 13:40:14;;;;;;;6.32;2.00;;;;;;;;;;5024985;28;20438;-81
2022/05/21 13:42:44;;;;;;;6.43;2.20;;;;;;;;;;5026047;28;20462;-83
2022/05/21 13:45:15;;;;;;;7.15;2.80;;;;;;;;;;5026663;28;20459;-83
2022/05/21 13:47:48;;;;;;;4.77;2.10;;;;;;;;;;5023802;28;20445;-80
2022/05/21 13:50:17;;;;;;;6.88;2.10;;;;;;;;;;5025553;28;20435;-80
2022/05/21 13:52:43;;;;;;;7.85;2.65;;;;;;;;;;5026088;28;20511;-81
2022/05/21 13:55:12;;;;;;;7.60;2.40;;;;;;;;;;5024948;28;20425;-82
2022/05/21 13:57:40;;;;;;;6.35;2.20;;;;;;;;;;5023502;28;20436;-83
2022/05/21 14:00:16;;;;;;;5.75;2.00;;;;;;;;;;5025205;28;21003;-85
2022/05/21 14:02:43;;;;;;;5.47;1.80;;;;;;;;;;5025358;28;20514;-84
2022/05/21 14:05:27;;;;;;;5.28;1.92;;;;;;;;;;5026315;28;20422;-83
2022/05/21 14:07:54;;;;;;;5.10;1.95;;;;;;;;;;5025265;28;20527;-84
2022/05/21 14:10:32;;;;;;;4.75;1.80;;;;;;;;;;5021467;28;20475;-83
2022/05/21 14:12:59;;;;;;;5.75;2.10;;;;;;;;;;5020581;28;20415;-80
2022/05/21 14:15:34;;;;;;;5.90;2.10;;;;;;;;;;5022951;28;20489;-80
2022/05/21 14:18:01;;;;;;;5.03;1.80;;;;;;;;;;5022403;28;20431;-81
2022/05/21 14:20:29;;;;;;;4.25;1.55;;;;;;;;;;5024578;28;20925;-81
2022/05/21 14:22:55;;;;;;;6.53;2.00;;;;;;;;;;5024435;28;20415;-80
2022/05/21 14:25:33;;;;;;;4.18;1.92;;;;;;;;;;5023150;28;20432;-80
2022/05/21 14:28:06;;;;;;;4.40;1.60;;;;;;;;;;5021161;28;20423;-81
2022/05/21 14:30:36;;;;;;;5.30;2.30;;;;;;;;;;5022316;28;20889;-81
2022/05/21 14:33:21;;;;;;;5.97;1.83;;;;;;;;;;5022021;28;20411;-82
2022/05/21 14:35:47;;;;;;;5.32;1.73;;;;;;;;;;5022481;28;20773;-81
2022/05/21 14:38:18;;;;;;;6.00;1.90;;;;;;;;;;5020980;28;20415;-79
2022/05/21 14:40:46;;;;;;;7.27;2.00;;;;;;;;;;5021484;28;20468;-81
2022/05/21 14:43:18;;;;;;;4.70;2.00;;;;;;;;;;5021139;28;20469;-80
2022/05/21 14:45:46;;;;;;;6.00;1.90;;;;;;;;;;5018452;28;20506;-82
2022/05/21 14:48:11;;;;;;;7.25;2.00;;;;;;;;;;5019427;28;20423;-81
2022/05/21 14:53:24;;;;;;;6.18;1.70;;;;;;;;;;5022169;28;20947;-81
2022/05/21 14:55:50;;;;;;;4.78;1.83;;;;;;;;;;5021579;28;20431;-80
2022/05/21 14:58:17;;;;;;;6.28;1.73;;;;;;;;;;5019055;28;20424;-80
2022/05/21 15:00:43;;;;;;;5.97;1.80;;;;;;;;;;5018461;28;21493;-81
2022/05/21 15:03:11;;;;;;;6.82;2.10;;;;;;;;;;5020859;28;20467;-82
2022/05/21 15:05:38;;;;;;;5.78;1.60;;;;;;;;;;5021114;28;20857;-82
2022/05/21 15:08:05;;;;;;;4.33;1.80;;;;;;;;;;5020704;28;20484;-82
2022/05/21 15:10:31;;;;;;;4.13;2.00;;;;;;;;;;5022134;28;21097;-82
2022/05/21 15:12:57;;;;;;;3.85;1.20;;;;;;;;;;5020194;28;20421;-81
2022/05/21 15:15:23;;;;;;;5.75;2.17;;;;;;;;;;5020089;28;20435;-80